Time;durP1;ratioP1;P1;durP2;ratioP2;P2;SDS_P1;SDS_P2;PMS_P1;PMS_P2;Temp;Humidity;BMP_temperature;BMP_pressure;BME280_temperature;BME280_humidity;BME280_pressure;Samples;Min_cycle;Max_cycle;Signal;HPM_P1;HPM_P2
2021/11/26 00:02:19;;;;;;;;;;;16.80;99.90;;;;;;5071938;28;19957;-75
2021/11/26 00:04:47;;;;;;;;;;;16.80;99.90;;;;;;5072240;28;19954;-74
2021/11/26 00:07:14;;;;;;;;;;;16.70;99.90;;;;;;5072077;28;19908;-77
2021/11/26 00:09:41;;;;;;;;;;;16.70;99.90;;;;;;5073010;28;20422;-75
2021/11/26 00:12:08;;;;;;;;;;;16.70;99.90;;;;;;5075672;28;19915;-76
2021/11/26 00:14:42;;;;;;;;;;;16.80;99.90;;;;;;5076205;28;20003;-77
2021/11/26 00:17:16;;;;;;;;;;;16.70;99.90;;;;;;5075939;28;19951;-76
2021/11/26 00:19:43;;;;;;;;;;;16.70;99.90;;;;;;5076300;28;19912;-77
2021/11/26 00:22:11;;;;;;;;;;;16.70;99.90;;;;;;5091549;28;19920;-76
2021/11/26 00:24:37;;;;;;;;;;;16.70;99.90;;;;;;5091599;28;19959;-77
2021/11/26 00:27:04;;;;;;;;;;;16.70;99.90;;;;;;5076168;28;20401;-77
2021/11/26 00:29:31;;;;;;;;;;;16.80;99.90;;;;;;5074823;28;20282;-76
2021/11/26 00:31:58;;;;;;;;;;;16.90;99.90;;;;;;5075831;28;19908;-75
2021/11/26 00:34:24;;;;;;;;;;;16.90;99.90;;;;;;5078356;28;19910;-70
2021/11/26 00:36:51;;;;;;;;;;;16.80;99.90;;;;;;5075924;28;19913;-70
2021/11/26 00:39:18;;;;;;;;;;;16.80;99.90;;;;;;5075951;28;19958;-70
2021/11/26 00:41:48;;;;;;;;;;;16.80;99.90;;;;;;5075682;28;20338;-70
2021/11/26 00:44:15;;;;;;;;;;;16.80;99.90;;;;;;5075526;28;20273;-71
2021/11/26 00:46:44;;;;;;;;;;;16.90;99.90;;;;;;5075570;28;19915;-70
2021/11/26 00:49:11;;;;;;;;;;;16.90;99.90;;;;;;5075773;28;19924;-71
2021/11/26 00:51:38;;;;;;;;;;;16.90;99.90;;;;;;5075465;28;19909;-70
2021/11/26 00:54:05;;;;;;;;;;;16.90;99.90;;;;;;5075417;28;19987;-74
2021/11/26 00:56:31;;;;;;;;;;;16.90;99.90;;;;;;5075368;28;19909;-73
2021/11/26 00:58:58;;;;;;;;;;;16.90;99.90;;;;;;5075419;28;20004;-73
2021/11/26 01:01:25;;;;;;;;;;;16.90;99.90;;;;;;5075143;28;19952;-71
2021/11/26 01:03:52;;;;;;;;;;;16.80;99.90;;;;;;5074649;28;20337;-71
2021/11/26 01:06:18;;;;;;;;;;;16.80;99.90;;;;;;5075222;28;19909;-70
2021/11/26 01:08:45;;;;;;;;;;;16.90;99.90;;;;;;5075409;28;19908;-71
2021/11/26 01:11:12;;;;;;;;;;;16.90;99.90;;;;;;5075106;28;19913;-70
2021/11/26 01:13:42;;;;;;;;;;;16.90;99.90;;;;;;5074925;28;19908;-71
2021/11/26 01:16:08;;;;;;;;;;;16.90;99.90;;;;;;5074698;28;19966;-70
2021/11/26 01:18:35;;;;;;;;;;;17.00;99.90;;;;;;5074964;28;20022;-70
2021/11/26 01:21:06;;;;;;;;;;;17.00;99.90;;;;;;5074255;28;20399;-70
2021/11/26 01:23:34;;;;;;;;;;;17.00;99.90;;;;;;5074982;28;20367;-70
2021/11/26 01:26:02;;;;;;;;;;;17.10;99.90;;;;;;5074578;28;19909;-71
2021/11/26 01:28:29;;;;;;;;;;;17.10;99.90;;;;;;5074812;28;19913;-69
2021/11/26 01:30:56;;;;;;;;;;;17.10;99.90;;;;;;5074692;28;20369;-70
2021/11/26 01:33:23;;;;;;;;;;;17.10;99.90;;;;;;5074790;28;20367;-71
2021/11/26 01:35:53;;;;;;;;;;;17.00;99.90;;;;;;5073402;28;19987;-76
2021/11/26 01:38:22;;;;;;;;;;;17.00;99.90;;;;;;5074808;28;19923;-70
2021/11/26 01:40:49;;;;;;;;;;;17.00;99.90;;;;;;5074682;28;19908;-70
2021/11/26 01:43:17;;;;;;;;;;;17.10;99.90;;;;;;5074445;28;19909;-75
2021/11/26 01:45:49;;;;;;;;;;;17.10;99.90;;;;;;5074190;28;19913;-71
2021/11/26 01:48:19;;;;;;;;;;;17.10;99.90;;;;;;5073898;28;19908;-70
2021/11/26 01:50:46;;;;;;;;;;;17.00;99.90;;;;;;5074302;28;19908;-70
2021/11/26 01:53:13;;;;;;;;;;;17.10;99.90;;;;;;5074317;28;19909;-71
2021/11/26 01:55:40;;;;;;;;;;;17.10;99.90;;;;;;5074300;28;20392;-71
2021/11/26 01:58:10;;;;;;;;;;;17.30;99.90;;;;;;5074039;28;19920;-70
2021/11/26 02:00:38;;;;;;;;;;;17.30;99.90;;;;;;5073978;28;19924;-73
2021/11/26 02:03:05;;;;;;;;;;;17.30;99.90;;;;;;5073922;28;19966;-77
2021/11/26 02:05:32;;;;;;;;;;;17.20;99.90;;;;;;5073942;28;20040;-75
2021/11/26 02:07:59;;;;;;;;;;;17.10;99.90;;;;;;5073886;28;19909;-74
2021/11/26 02:10:26;;;;;;;;;;;17.10;99.90;;;;;;5073964;28;19908;-75
2021/11/26 02:12:52;;;;;;;;;;;17.10;99.90;;;;;;5074077;28;20363;-74
2021/11/26 02:15:22;;;;;;;;;;;17.10;99.90;;;;;;5073691;28;19999;-74
2021/11/26 02:17:49;;;;;;;;;;;17.10;99.90;;;;;;5089064;28;20216;-76
2021/11/26 02:20:22;;;;;;;;;;;17.10;99.90;;;;;;5073863;28;19909;-75
2021/11/26 02:22:50;;;;;;;;;;;17.10;99.90;;;;;;5089285;28;19912;-76
2021/11/26 02:25:16;;;;;;;;;;;17.20;99.90;;;;;;5073711;28;20374;-74
2021/11/26 02:27:44;;;;;;;;;;;17.10;99.90;;;;;;5073695;28;19909;-76
2021/11/26 02:30:14;;;;;;;;;;;17.10;99.90;;;;;;5073305;28;19915;-74
2021/11/26 02:32:41;;;;;;;;;;;17.10;99.90;;;;;;5088502;28;20011;-74
2021/11/26 02:35:09;;;;;;;;;;;17.10;99.90;;;;;;5073450;28;19908;-74
2021/11/26 02:37:37;;;;;;;;;;;17.30;99.90;;;;;;5073267;28;19954;-73
2021/11/26 02:40:04;;;;;;;;;;;17.40;99.90;;;;;;5073123;28;20329;-76
2021/11/26 02:42:31;;;;;;;;;;;17.40;99.90;;;;;;5073591;28;19915;-74
2021/11/26 02:44:57;;;;;;;;;;;17.40;99.90;;;;;;5073143;28;19915;-76
2021/11/26 02:47:24;;;;;;;;;;;17.30;99.90;;;;;;5073228;28;20286;-74
2021/11/26 02:49:51;;;;;;;;;;;17.30;99.90;;;;;;5071698;28;19912;-75
2021/11/26 02:52:18;;;;;;;;;;;17.30;99.90;;;;;;5073116;28;19939;-74
2021/11/26 02:54:44;;;;;;;;;;;17.50;99.90;;;;;;5073086;28;19908;-71
2021/11/26 02:57:11;;;;;;;;;;;17.40;99.90;;;;;;5072605;28;19921;-72
2021/11/26 02:59:38;;;;;;;;;;;17.30;99.90;;;;;;5072714;28;19990;-73
2021/11/26 03:02:05;;;;;;;;;;;17.30;99.90;;;;;;5072708;28;20335;-72
2021/11/26 03:04:31;;;;;;;;;;;17.30;99.90;;;;;;5071763;28;19962;-73
2021/11/26 03:07:08;;;;;;;;;;;17.30;99.90;;;;;;5072783;28;19909;-74
2021/11/26 03:09:39;;;;;;;;;;;17.20;99.90;;;;;;5073057;28;19908;-75
2021/11/26 03:12:09;;;;;;;;;;;17.20;99.90;;;;;;5072638;28;19908;-75
2021/11/26 03:14:36;;;;;;;;;;;17.20;99.90;;;;;;5072780;28;19917;-75
2021/11/26 03:17:03;;;;;;;;;;;17.20;99.90;;;;;;5072711;28;19920;-76
2021/11/26 03:19:30;;;;;;;;;;;17.10;99.90;;;;;;5072753;28;19992;-72
2021/11/26 03:21:57;;;;;;;;;;;17.10;99.90;;;;;;5071139;28;19954;-74
2021/11/26 03:24:24;;;;;;;;;;;17.20;99.90;;;;;;5072713;28;19912;-72
2021/11/26 03:26:51;;;;;;;;;;;17.20;99.90;;;;;;5088204;28;20256;-75
2021/11/26 03:29:19;;;;;;;;;;;17.20;99.90;;;;;;5072650;28;19909;-75
2021/11/26 03:31:46;;;;;;;;;;;17.30;99.90;;;;;;5088056;28;19970;-70
2021/11/26 03:34:13;;;;;;;;;;;17.40;99.90;;;;;;5072565;28;19951;-72
2021/11/26 03:36:43;;;;;;;;;;;17.50;99.90;;;;;;5072569;28;19978;-75
2021/11/26 03:39:09;;;;;;;;;;;17.60;99.90;;;;;;5072583;28;19919;-75
2021/11/26 03:41:36;;;;;;;;;;;17.70;99.90;;;;;;5072430;28;19932;-75
2021/11/26 03:44:03;;;;;;;;;;;17.60;99.90;;;;;;5071427;28;20329;-76
2021/11/26 03:46:30;;;;;;;;;;;17.60;99.90;;;;;;5072428;28;19916;-73
2021/11/26 03:48:57;;;;;;;;;;;17.60;99.90;;;;;;5072237;28;19915;-75
2021/11/26 03:51:23;;;;;;;;;;;17.70;99.90;;;;;;5072559;28;19908;-76
2021/11/26 03:53:50;;;;;;;;;;;17.70;99.90;;;;;;5072288;28;19908;-76
2021/11/26 03:56:17;;;;;;;;;;;17.70;99.90;;;;;;5072424;28;19920;-70
2021/11/26 03:58:44;;;;;;;;;;;17.70;99.90;;;;;;5072298;28;19916;-71
2021/11/26 04:01:10;;;;;;;;;;;17.70;99.90;;;;;;5072378;28;19909;-74
2021/11/26 04:03:37;;;;;;;;;;;17.70;99.90;;;;;;5072143;28;19924;-75
2021/11/26 04:06:04;;;;;;;;;;;17.70;99.90;;;;;;5071973;28;19916;-72
2021/11/26 04:08:31;;;;;;;;;;;17.60;99.90;;;;;;5087354;28;19909;-74
2021/11/26 04:11:01;;;;;;;;;;;17.50;99.90;;;;;;5072190;28;19909;-71
2021/11/26 04:13:27;;;;;;;;;;;17.50;99.90;;;;;;5072132;28;20389;-75
2021/11/26 04:16:01;;;;;;;;;;;17.40;99.90;;;;;;5071805;28;19909;-72
2021/11/26 04:18:29;;;;;;;;;;;17.40;99.90;;;;;;5071702;28;19920;-71
2021/11/26 04:20:55;;;;;;;;;;;17.40;99.90;;;;;;5071800;28;19909;-71
2021/11/26 04:23:22;;;;;;;;;;;17.40;99.90;;;;;;5072113;28;19931;-68
2021/11/26 04:25:49;;;;;;;;;;;17.30;99.90;;;;;;5071911;28;19931;-72
2021/11/26 04:28:15;;;;;;;;;;;17.30;99.90;;;;;;5070416;28;19985;-72
2021/11/26 04:30:42;;;;;;;;;;;17.20;99.90;;;;;;5071636;28;20441;-69
2021/11/26 04:33:09;;;;;;;;;;;17.10;99.90;;;;;;5070639;28;19931;-70
2021/11/26 04:35:36;;;;;;;;;;;17.10;99.90;;;;;;5087016;28;20419;-71
2021/11/26 04:38:03;;;;;;;;;;;17.00;99.90;;;;;;5071269;28;19924;-73
2021/11/26 04:40:30;;;;;;;;;;;16.90;99.90;;;;;;5087219;28;19912;-74
2021/11/26 04:42:56;;;;;;;;;;;16.80;99.90;;;;;;5071594;28;20173;-70
2021/11/26 04:45:23;;;;;;;;;;;16.80;99.90;;;;;;5071784;28;19973;-69
2021/11/26 04:47:50;;;;;;;;;;;16.80;99.90;;;;;;5071614;28;20267;-75
2021/11/26 04:50:17;;;;;;;;;;;16.80;99.90;;;;;;5071895;28;19920;-72
2021/11/26 04:52:44;;;;;;;;;;;16.80;99.90;;;;;;5071848;28;19915;-75
2021/11/26 04:55:12;;;;;;;;;;;16.70;99.90;;;;;;5071737;28;19915;-71
2021/11/26 04:57:39;;;;;;;;;;;16.60;99.90;;;;;;5075271;28;20309;-72
2021/11/26 05:00:07;;;;;;;;;;;16.60;99.90;;;;;;5074762;28;19908;-75
2021/11/26 05:02:34;;;;;;;;;;;16.60;99.90;;;;;;5090530;28;19920;-74
2021/11/26 05:05:01;;;;;;;;;;;16.70;99.90;;;;;;5075275;28;20359;-75
2021/11/26 05:07:27;;;;;;;;;;;16.60;99.90;;;;;;5075358;28;19908;-74
2021/11/26 05:09:54;;;;;;;;;;;16.50;99.90;;;;;;5075006;28;19908;-76
2021/11/26 05:12:22;;;;;;;;;;;16.50;99.90;;;;;;5074970;28;19915;-75
2021/11/26 05:14:49;;;;;;;;;;;16.50;99.90;;;;;;5074987;28;20007;-75
2021/11/26 05:17:16;;;;;;;;;;;16.50;99.90;;;;;;5074840;28;20327;-75
2021/11/26 05:19:42;;;;;;;;;;;16.50;99.90;;;;;;5075010;28;19913;-71
2021/11/26 05:22:09;;;;;;;;;;;16.50;99.90;;;;;;5074631;28;19908;-75
2021/11/26 05:24:36;;;;;;;;;;;16.50;99.90;;;;;;5074817;28;19908;-75
2021/11/26 05:27:03;;;;;;;;;;;16.50;99.90;;;;;;5074803;28;19968;-74
2021/11/26 05:29:29;;;;;;;;;;;16.50;99.90;;;;;;5074782;28;19919;-75
2021/11/26 05:31:56;;;;;;;;;;;16.50;99.90;;;;;;5074497;28;19915;-75
2021/11/26 05:34:23;;;;;;;;;;;16.50;99.90;;;;;;5090299;28;19908;-75
2021/11/26 05:36:50;;;;;;;;;;;16.40;99.90;;;;;;5074638;28;19908;-73
2021/11/26 05:39:16;;;;;;;;;;;16.40;99.90;;;;;;5074399;28;20402;-75
2021/11/26 05:41:43;;;;;;;;;;;16.40;99.90;;;;;;5074417;28;19908;-75
2021/11/26 05:44:10;;;;;;;;;;;16.30;99.90;;;;;;5074073;28;20286;-75
2021/11/26 05:46:40;;;;;;;;;;;16.20;99.90;;;;;;5089313;28;19909;-75
2021/11/26 05:49:06;;;;;;;;;;;16.20;99.90;;;;;;5074416;28;19908;-71
2021/11/26 05:51:33;;;;;;;;;;;16.30;99.90;;;;;;5072594;28;19913;-75
2021/11/26 05:54:00;;;;;;;;;;;16.30;99.90;;;;;;5071996;28;19913;-74
2021/11/26 05:56:27;;;;;;;;;;;16.30;99.90;;;;;;5072122;28;20383;-74
2021/11/26 05:58:53;;;;;;;;;;;16.40;99.90;;;;;;5072005;28;20307;-75
2021/11/26 06:01:20;;;;;;;;;;;16.30;99.90;;;;;;5071974;28;19991;-76
2021/11/26 06:03:47;;;;;;;;;;;16.20;99.90;;;;;;5071287;28;20260;-74
2021/11/26 06:06:17;;;;;;;;;;;16.10;99.90;;;;;;5071249;28;20594;-74
2021/11/26 06:08:44;;;;;;;;;;;16.10;99.90;;;;;;5071225;28;20014;-75
2021/11/26 06:11:11;;;;;;;;;;;16.10;99.90;;;;;;5071990;28;19909;-71
2021/11/26 06:13:38;;;;;;;;;;;16.10;99.90;;;;;;5072176;28;20286;-75
2021/11/26 06:16:04;;;;;;;;;;;16.10;99.90;;;;;;5071660;28;19913;-74
2021/11/26 06:18:31;;;;;;;;;;;16.20;99.90;;;;;;5071384;28;19916;-75
2021/11/26 06:20:58;;;;;;;;;;;16.10;99.90;;;;;;5071604;28;19919;-74
2021/11/26 06:23:24;;;;;;;;;;;16.10;99.90;;;;;;5071777;28;20375;-74
2021/11/26 06:25:51;;;;;;;;;;;16.10;99.90;;;;;;5071364;28;20019;-76
2021/11/26 06:28:18;;;;;;;;;;;16.10;99.90;;;;;;5071137;28;19973;-75
2021/11/26 06:30:45;;;;;;;;;;;16.00;99.90;;;;;;5071091;28;19912;-75
2021/11/26 06:33:12;;;;;;;;;;;16.10;99.90;;;;;;5070119;28;19912;-74
2021/11/26 06:35:38;;;;;;;;;;;16.10;99.90;;;;;;5071412;28;19915;-74
2021/11/26 06:38:05;;;;;;;;;;;16.10;99.90;;;;;;5070762;28;19943;-75
2021/11/26 06:40:32;;;;;;;;;;;16.10;99.90;;;;;;5071177;28;20290;-75
2021/11/26 06:42:59;;;;;;;;;;;16.10;99.90;;;;;;5070605;28;19915;-75
2021/11/26 06:45:26;;;;;;;;;;;16.00;99.90;;;;;;5071077;28;19953;-75
2021/11/26 06:47:54;;;;;;;;;;;16.00;99.90;;;;;;5068703;28;19912;-75
2021/11/26 06:50:21;;;;;;;;;;;15.90;99.90;;;;;;5085927;28;19909;-73
2021/11/26 06:52:48;;;;;;;;;;;15.90;99.90;;;;;;5070658;28;19909;-71
2021/11/26 06:55:15;;;;;;;;;;;16.00;99.90;;;;;;5069733;28;19948;-74
2021/11/26 06:57:42;;;;;;;;;;;15.90;99.90;;;;;;5070994;28;20517;-75
2021/11/26 07:00:11;;;;;;;;;;;15.90;99.90;;;;;;5070386;28;20011;-76
2021/11/26 07:02:38;;;;;;;;;;;16.00;99.90;;;;;;5070567;28;19930;-75
2021/11/26 07:05:05;;;;;;;;;;;16.00;99.90;;;;;;5070785;28;19924;-76
2021/11/26 07:07:31;;;;;;;;;;;15.90;99.90;;;;;;5070874;28;19913;-75
2021/11/26 07:09:58;;;;;;;;;;;15.90;99.90;;;;;;5070781;28;19912;-75
2021/11/26 07:12:25;;;;;;;;;;;15.90;99.90;;;;;;5070705;28;19926;-76
2021/11/26 07:14:52;;;;;;;;;;;15.80;99.90;;;;;;5070109;28;20019;-73
2021/11/26 07:17:18;;;;;;;;;;;15.80;99.90;;;;;;5070517;28;19966;-75
2021/11/26 07:19:49;;;;;;;;;;;15.90;99.90;;;;;;5070345;28;19910;-74
2021/11/26 07:22:17;;;;;;;;;;;15.90;99.90;;;;;;5070947;28;19939;-75
2021/11/26 07:24:45;;;;;;;;;;;15.80;99.90;;;;;;5070533;28;19909;-73
2021/11/26 07:27:11;;;;;;;;;;;15.80;99.90;;;;;;5070186;28;20280;-75
2021/11/26 07:29:38;;;;;;;;;;;15.80;99.90;;;;;;5070343;28;19916;-74
2021/11/26 07:32:05;;;;;;;;;;;15.80;99.90;;;;;;5070284;28;20022;-75
2021/11/26 07:34:32;;;;;;;;;;;15.80;99.90;;;;;;5070527;28;19912;-74
2021/11/26 07:36:59;;;;;;;;;;;15.80;99.90;;;;;;5070322;28;19923;-76
2021/11/26 07:39:32;;;;;;;;;;;15.80;99.90;;;;;;5070054;28;19916;-73
2021/11/26 07:41:59;;;;;;;;;;;15.80;99.90;;;;;;5070207;28;20379;-75
2021/11/26 07:44:26;;;;;;;;;;;15.80;99.90;;;;;;5070293;28;19913;-74
2021/11/26 07:46:52;;;;;;;;;;;15.90;99.90;;;;;;5070558;28;19913;-74
2021/11/26 07:49:20;;;;;;;;;;;15.90;99.90;;;;;;5070354;28;20426;-74
2021/11/26 07:51:47;;;;;;;;;;;15.70;99.90;;;;;;5069916;28;19916;-74
2021/11/26 07:54:14;;;;;;;;;;;15.70;99.90;;;;;;5069844;28;19935;-75
2021/11/26 07:56:41;;;;;;;;;;;15.70;99.90;;;;;;5070192;28;19915;-75
2021/11/26 07:59:08;;;;;;;;;;;15.80;99.90;;;;;;5069987;28;19917;-75
2021/11/26 08:01:35;;;;;;;;;;;15.80;99.90;;;;;;5070026;28;20015;-76
2021/11/26 08:04:03;;;;;;;;;;;15.80;99.90;;;;;;5069987;28;19919;-74
2021/11/26 08:06:29;;;;;;;;;;;15.80;99.90;;;;;;5071963;28;19919;-75
2021/11/26 08:08:56;;;;;;;;;;;15.90;99.90;;;;;;5072446;28;19995;-75
2021/11/26 08:11:23;;;;;;;;;;;15.80;99.90;;;;;;5072115;28;20267;-75
2021/11/26 08:13:49;;;;;;;;;;;15.80;99.90;;;;;;5071898;28;19909;-75
2021/11/26 08:16:16;;;;;;;;;;;15.70;99.90;;;;;;5072183;28;19908;-69
2021/11/26 08:18:43;;;;;;;;;;;15.80;99.90;;;;;;5071985;28;19970;-70
2021/11/26 08:21:10;;;;;;;;;;;15.70;99.90;;;;;;5072129;28;20328;-69
2021/11/26 08:23:36;;;;;;;;;;;15.80;99.90;;;;;;5072051;28;19908;-74
2021/11/26 08:26:03;;;;;;;;;;;15.80;99.90;;;;;;5072054;28;19908;-73
2021/11/26 08:28:30;;;;;;;;;;;15.80;99.90;;;;;;5071693;28;19913;-71
2021/11/26 08:30:57;;;;;;;;;;;15.80;99.90;;;;;;5073142;28;19912;-71
2021/11/26 08:33:27;;;;;;;;;;;15.80;99.90;;;;;;5075904;28;20316;-74
2021/11/26 08:35:54;;;;;;;;;;;15.80;99.90;;;;;;5075708;28;19948;-74
2021/11/26 08:38:21;;;;;;;;;;;15.80;99.90;;;;;;5074042;28;20286;-71
2021/11/26 08:40:48;;;;;;;;;;;15.80;99.90;;;;;;5075744;28;19915;-75
2021/11/26 08:43:15;;;;;;;;;;;15.80;99.90;;;;;;5075500;28;19944;-72
2021/11/26 08:45:42;;;;;;;;;;;15.70;99.90;;;;;;5075342;28;19924;-72
2021/11/26 08:48:09;;;;;;;;;;;15.70;99.90;;;;;;5075253;28;19909;-76
2021/11/26 08:50:36;;;;;;;;;;;15.70;99.90;;;;;;5075743;28;20312;-74
2021/11/26 08:53:05;;;;;;;;;;;15.70;99.90;;;;;;5075468;28;19908;-71
2021/11/26 08:55:32;;;;;;;;;;;15.80;99.90;;;;;;5075556;28;20364;-72
2021/11/26 08:58:00;;;;;;;;;;;15.70;99.90;;;;;;5075025;28;19921;-73
2021/11/26 09:00:29;;;;;;;;;;;15.70;99.90;;;;;;5075308;28;19913;-73
2021/11/26 09:02:56;;;;;;;;;;;15.70;99.90;;;;;;5075140;28;20011;-72
2021/11/26 09:05:22;;;;;;;;;;;15.60;99.90;;;;;;5075316;28;20366;-74
2021/11/26 09:07:49;;;;;;;;;;;15.70;99.90;;;;;;5075051;28;19915;-73
2021/11/26 09:10:17;;;;;;;;;;;15.70;99.90;;;;;;5075336;28;19915;-72
2021/11/26 09:12:44;;;;;;;;;;;15.70;99.90;;;;;;5075129;28;20375;-74
2021/11/26 09:15:13;;;;;;;;;;;15.70;99.90;;;;;;5073926;28;19913;-74
2021/11/26 09:17:40;;;;;;;;;;;15.70;99.90;;;;;;5075371;28;19916;-72
2021/11/26 09:20:07;;;;;;;;;;;15.60;99.90;;;;;;5074634;28;19913;-74
2021/11/26 09:22:33;;;;;;;;;;;15.60;99.90;;;;;;5074868;28;19908;-73
2021/11/26 09:25:00;;;;;;;;;;;15.60;99.90;;;;;;5075283;28;20260;-75
2021/11/26 09:27:27;;;;;;;;;;;15.60;99.90;;;;;;5074498;28;19967;-72
2021/11/26 09:29:55;;;;;;;;;;;15.60;99.90;;;;;;5074069;28;20308;-74
2021/11/26 09:32:21;;;;;;;;;;;15.60;99.90;;;;;;5074691;28;19913;-71
2021/11/26 09:34:49;;;;;;;;;;;15.60;99.90;;;;;;5074406;28;20008;-72
2021/11/26 09:37:15;;;;;;;;;;;15.60;99.90;;;;;;5074789;28;19913;-69
2021/11/26 09:39:42;;;;;;;;;;;15.70;99.90;;;;;;5074734;28;19958;-73
2021/11/26 09:42:09;;;;;;;;;;;15.70;99.90;;;;;;5073007;28;20348;-72
2021/11/26 09:44:39;;;;;;;;;;;15.70;99.90;;;;;;5073806;28;19908;-74
2021/11/26 09:47:06;;;;;;;;;;;15.60;99.90;;;;;;5074501;28;19909;-68
2021/11/26 09:49:33;;;;;;;;;;;15.70;99.90;;;;;;5074526;28;19909;-72
2021/11/26 09:52:00;;;;;;;;;;;15.70;99.90;;;;;;5074215;28;19908;-69
2021/11/26 09:54:27;;;;;;;;;;;15.60;99.90;;;;;;5074414;28;19915;-73
2021/11/26 09:56:53;;;;;;;;;;;15.70;99.90;;;;;;5074085;28;19908;-72
2021/11/26 09:59:22;;;;;;;;;;;15.60;99.90;;;;;;5073735;28;19982;-76
2021/11/26 10:01:49;;;;;;;;;;;15.60;99.90;;;;;;5073955;28;19920;-75
2021/11/26 10:04:20;;;;;;;;;;;15.60;99.90;;;;;;5074230;28;19966;-73
2021/11/26 10:06:47;;;;;;;;;;;15.60;99.90;;;;;;5074123;28;19908;-74
2021/11/26 10:09:16;;;;;;;;;;;15.60;99.90;;;;;;5074154;28;19909;-71
2021/11/26 10:11:46;;;;;;;;;;;15.60;99.90;;;;;;5073693;28;19919;-72
2021/11/26 10:14:13;;;;;;;;;;;15.60;99.90;;;;;;5073703;28;19913;-75
2021/11/26 10:16:44;;;;;;;;;;;15.70;99.90;;;;;;5073873;28;19909;-75
2021/11/26 10:19:11;;;;;;;;;;;15.70;99.90;;;;;;5073854;28;20325;-74
2021/11/26 10:21:38;;;;;;;;;;;15.70;99.90;;;;;;5073792;28;19955;-75
2021/11/26 10:24:12;;;;;;;;;;;15.70;99.90;;;;;;5073529;28;19915;-75
2021/11/26 10:26:39;;;;;;;;;;;15.80;99.90;;;;;;5073508;28;19909;-73
2021/11/26 10:29:06;;;;;;;;;;;15.80;99.90;;;;;;5073106;28;20271;-74
2021/11/26 10:31:35;;;;;;;;;;;15.80;99.90;;;;;;5073253;28;19908;-76
2021/11/26 10:34:04;;;;;;;;;;;15.70;99.90;;;;;;5070887;28;20324;-75
2021/11/26 10:36:44;;;;;;;;;;;15.80;99.90;;;;;;5069801;28;19919;-75
2021/11/26 10:39:21;;;;;;;;;;;15.80;99.90;;;;;;5070170;28;20290;-73
2021/11/26 10:41:56;;;;;;;;;;;15.70;99.90;;;;;;5069643;28;20069;-75
2021/11/26 10:44:48;;;;;;;;;;;15.80;99.90;;;;;;5070755;28;19916;-75
2021/11/26 10:58:01;;;;;;;;;;;15.70;99.90;;;;;;5071826;28;19928;-75
2021/11/26 11:00:28;;;;;;;;;;;15.70;99.90;;;;;;5070140;28;19920;-75
2021/11/26 11:02:58;;;;;;;;;;;15.70;99.90;;;;;;5071440;28;20016;-72
2021/11/26 11:05:31;;;;;;;;;;;15.60;99.90;;;;;;5070651;28;20007;-75
2021/11/26 11:08:00;;;;;;;;;;;15.60;99.90;;;;;;5070078;28;19917;-72
2021/11/26 11:10:35;;;;;;;;;;;15.60;99.90;;;;;;5068828;28;19920;-72
2021/11/26 11:13:12;;;;;;;;;;;15.60;99.90;;;;;;5070827;28;20347;-75
2021/11/26 11:15:39;;;;;;;;;;;15.60;99.90;;;;;;5067624;28;19952;-75
2021/11/26 11:18:06;;;;;;;;;;;15.60;99.90;;;;;;5070635;28;19921;-73
2021/11/26 11:20:35;;;;;;;;;;;15.60;99.90;;;;;;5069307;28;20405;-72
2021/11/26 11:23:02;;;;;;;;;;;15.60;99.90;;;;;;5070417;28;20004;-75
2021/11/26 11:25:29;;;;;;;;;;;15.60;99.90;;;;;;5069414;28;20366;-76
2021/11/26 11:28:03;;;;;;;;;;;15.70;99.90;;;;;;5069798;28;20248;-73
2021/11/26 11:30:33;;;;;;;;;;;15.70;99.90;;;;;;5070701;28;19918;-77
2021/11/26 11:33:00;;;;;;;;;;;15.60;99.90;;;;;;5069763;28;19913;-75
2021/11/26 11:35:29;;;;;;;;;;;15.60;99.90;;;;;;5069100;28;19928;-75
2021/11/26 11:37:57;;;;;;;;;;;15.60;99.90;;;;;;5069235;28;19931;-76
2021/11/26 11:40:33;;;;;;;;;;;15.60;99.90;;;;;;5067546;28;19913;-75
2021/11/26 11:43:08;;;;;;;;;;;15.70;99.90;;;;;;5068077;28;19932;-76
2021/11/26 11:45:35;;;;;;;;;;;15.70;99.90;;;;;;5068790;28;19962;-73
2021/11/26 11:48:03;;;;;;;;;;;15.70;99.90;;;;;;5069290;28;19912;-74
2021/11/26 11:50:33;;;;;;;;;;;15.60;99.90;;;;;;5069506;28;19917;-77
2021/11/26 11:53:01;;;;;;;;;;;15.50;99.90;;;;;;5067706;28;19921;-75
2021/11/26 11:55:33;;;;;;;;;;;15.50;99.90;;;;;;5068090;28;19978;-72
2021/11/26 11:58:22;;;;;;;;;;;15.40;99.90;;;;;;5067127;28;19921;-71
2021/11/26 12:00:49;;;;;;;;;;;15.50;99.90;;;;;;5067426;28;20422;-75
2021/11/26 12:03:20;;;;;;;;;;;15.50;99.90;;;;;;5084886;28;19927;-75
2021/11/26 12:06:00;;;;;;;;;;;15.50;99.90;;;;;;5068033;28;19927;-73
2021/11/26 12:08:27;;;;;;;;;;;15.50;99.90;;;;;;5073297;28;20011;-74
2021/11/26 12:10:56;;;;;;;;;;;15.60;99.90;;;;;;5074515;28;19913;-68
2021/11/26 12:13:23;;;;;;;;;;;15.60;99.90;;;;;;5073782;28;19912;-69
2021/11/26 12:15:51;;;;;;;;;;;15.70;99.90;;;;;;5072960;28;20351;-69
2021/11/26 12:18:18;;;;;;;;;;;15.70;99.90;;;;;;5075915;28;20343;-70
2021/11/26 12:20:47;;;;;;;;;;;15.70;99.90;;;;;;5071997;28;19920;-68
2021/11/26 12:23:27;;;;;;;;;;;15.70;99.90;;;;;;5073973;28;19927;-69
2021/11/26 12:26:13;;;;;;;;;;;15.70;99.90;;;;;;5070998;28;20393;-68
2021/11/26 12:28:44;;;;;;;;;;;15.70;99.90;;;;;;5073392;28;20379;-73
2021/11/26 12:31:12;;;;;;;;;;;15.60;99.90;;;;;;5074568;28;19912;-70
2021/11/26 12:33:40;;;;;;;;;;;15.60;99.90;;;;;;5074087;28;19912;-68
2021/11/26 12:36:09;;;;;;;;;;;15.60;99.90;;;;;;5072662;28;19916;-70
2021/11/26 12:38:36;;;;;;;;;;;15.60;99.90;;;;;;5074147;28;19978;-68
2021/11/26 12:41:03;;;;;;;;;;;15.70;99.90;;;;;;5072176;28;19955;-68
2021/11/26 12:43:48;;;;;;;;;;;15.80;99.90;;;;;;5073381;28;19912;-69
2021/11/26 12:46:35;;;;;;;;;;;15.70;99.90;;;;;;5072763;28;19913;-69
2021/11/26 12:51:55;;;;;;;;;;;15.80;99.90;;;;;;5073228;28;19920;-75
2021/11/26 12:54:25;;;;;;;;;;;15.80;99.90;;;;;;5071027;28;19913;-67
2021/11/26 12:56:52;;;;;;;;;;;15.70;99.90;;;;;;5071120;28;19913;-68
2021/11/26 12:59:29;;;;;;;;;;;15.80;99.90;;;;;;5071194;28;19970;-68
2021/11/26 13:01:55;;;;;;;;;;;15.80;99.90;;;;;;5071171;28;19924;-68
2021/11/26 13:04:22;;;;;;;;;;;15.80;99.90;;;;;;5070859;28;20341;-68
2021/11/26 13:06:49;;;;;;;;;;;15.90;99.90;;;;;;5073432;28;19915;-72
2021/11/26 13:09:22;;;;;;;;;;;15.90;99.90;;;;;;5071058;28;19913;-68
2021/11/26 13:11:49;;;;;;;;;;;16.00;99.90;;;;;;5071328;28;19971;-67
2021/11/26 13:14:16;;;;;;;;;;;16.10;99.90;;;;;;5069103;28;20299;-73
2021/11/26 13:16:42;;;;;;;;;;;16.10;99.90;;;;;;5072967;28;19955;-74
2021/11/26 13:19:18;;;;;;;;;;;16.10;99.90;;;;;;5069975;28;19924;-74
2021/11/26 13:21:56;;;;;;;;;;;16.10;99.90;;;;;;5071628;28;19951;-73
2021/11/26 13:24:23;;;;;;;;;;;16.10;99.90;;;;;;5070961;28;20359;-71
2021/11/26 13:26:49;;;;;;;;;;;16.10;99.90;;;;;;5072555;28;19917;-74
2021/11/26 13:29:16;;;;;;;;;;;16.20;99.90;;;;;;5070115;28;19920;-74
2021/11/26 13:31:43;;;;;;;;;;;16.20;99.90;;;;;;5070229;28;19912;-73
2021/11/26 13:34:12;;;;;;;;;;;15.90;99.90;;;;;;5064661;28;19919;-71
2021/11/26 13:36:39;;;;;;;;;;;15.70;99.90;;;;;;5071222;28;19917;-75
2021/11/26 13:39:09;;;;;;;;;;;15.60;99.90;;;;;;5069771;28;19916;-73
2021/11/26 13:41:37;;;;;;;;;;;15.60;99.90;;;;;;5070999;28;20410;-68
2021/11/26 13:44:08;;;;;;;;;;;15.60;99.90;;;;;;5070078;28;19912;-71
2021/11/26 13:46:45;;;;;;;;;;;15.60;99.90;;;;;;5070953;28;20278;-69
2021/11/26 13:49:13;;;;;;;;;;;15.70;99.90;;;;;;5069733;28;19912;-71
2021/11/26 13:51:54;;;;;;;;;;;15.70;99.90;;;;;;5071061;28;20354;-68
2021/11/26 13:54:27;;;;;;;;;;;15.80;99.90;;;;;;5070852;28;19920;-68
2021/11/26 13:56:54;;;;;;;;;;;15.80;99.90;;;;;;5066823;28;19921;-69
2021/11/26 13:59:29;;;;;;;;;;;15.80;99.90;;;;;;5065733;28;19920;-71
2021/11/26 14:02:05;;;;;;;;;;;15.90;99.90;;;;;;5070177;28;20363;-68
2021/11/26 14:04:32;;;;;;;;;;;15.90;99.90;;;;;;5069660;28;20389;-71
2021/11/26 14:06:58;;;;;;;;;;;15.90;99.90;;;;;;5068776;28;19919;-70
2021/11/26 14:09:25;;;;;;;;;;;16.00;99.90;;;;;;5070458;28;19996;-70
2021/11/26 14:11:53;;;;;;;;;;;16.10;99.90;;;;;;5070107;28;19921;-68
2021/11/26 14:14:20;;;;;;;;;;;16.10;99.90;;;;;;5069607;28;19919;-69
2021/11/26 14:16:53;;;;;;;;;;;16.10;99.90;;;;;;5069836;28;20374;-72
2021/11/26 14:19:32;;;;;;;;;;;16.10;99.90;;;;;;5068766;28;19939;-73
2021/11/26 14:22:00;;;;;;;;;;;16.10;99.90;;;;;;5071471;28;19920;-72
2021/11/26 14:24:37;;;;;;;;;;;16.10;99.90;;;;;;5069267;28;20291;-68
2021/11/26 14:27:04;;;;;;;;;;;16.10;99.90;;;;;;5070430;28;19930;-69
2021/11/26 14:29:31;;;;;;;;;;;16.10;99.90;;;;;;5070021;28;20316;-70
2021/11/26 14:31:58;;;;;;;;;;;16.10;99.90;;;;;;5069911;28;19916;-73
2021/11/26 14:34:25;;;;;;;;;;;16.10;99.90;;;;;;5069421;28;20382;-70
2021/11/26 14:36:52;;;;;;;;;;;16.10;99.90;;;;;;5069134;28;19920;-69